createdAt,value
2022-09-12T00:06:06.312Z,12.9
2022-09-12T00:16:08.157Z,12.9
2022-09-12T00:26:10.141Z,12.7
2022-09-12T00:36:11.846Z,12.5
2022-09-12T00:46:13.718Z,12.5
2022-09-12T00:56:15.652Z,12.5
2022-09-12T01:06:18.003Z,12.4
2022-09-12T01:16:19.773Z,12.3
2022-09-12T01:26:21.968Z,12.3
2022-09-12T01:36:24.163Z,12.3
2022-09-12T01:56:27.675Z,12.2
2022-09-12T02:06:30.318Z,12.1
2022-09-12T02:16:32.779Z,12
2022-09-12T02:26:34.836Z,12
2022-09-12T02:36:37.472Z,11.9
2022-09-12T02:46:39.194Z,11.8
2022-09-12T03:16:46.259Z,11.6
2022-09-12T03:26:48.103Z,11.6
2022-09-12T03:36:49.912Z,11.4
2022-09-12T03:46:52.085Z,11.4
2022-09-12T03:56:54.463Z,11.4
2022-09-12T04:06:56.603Z,11.3
2022-09-12T04:16:58.778Z,11.4
2022-09-12T04:27:03.763Z,11.3
2022-09-12T04:37:03.415Z,11.2
2022-09-12T04:47:05.295Z,11.2
2022-09-12T04:57:07.467Z,11.2
2022-09-12T05:07:10.049Z,11.2
2022-09-12T05:17:12.165Z,11.2
2022-09-12T05:27:13.928Z,11.2
2022-09-12T05:37:15.749Z,11.2
2022-09-12T05:47:18.154Z,11.3
2022-09-12T05:57:20.437Z,11.4
2022-09-12T06:07:22.259Z,11.6
2022-09-12T06:17:24.707Z,11.8
2022-09-12T06:27:26.663Z,12.2
2022-09-12T06:37:28.384Z,12.5
2022-09-12T06:47:30.071Z,12.8
2022-09-12T06:57:31.810Z,13.2
2022-09-12T07:17:36.533Z,13.9
2022-09-12T07:27:38.218Z,14.1
2022-09-12T07:37:40.781Z,14.6
2022-09-12T07:47:42.450Z,14.9
2022-09-12T07:57:44.806Z,14.9
2022-09-12T08:07:46.674Z,15
2022-09-12T08:17:48.426Z,15.4
2022-09-12T08:27:50.532Z,15.6
2022-09-12T08:37:52.638Z,15.9
2022-09-12T08:47:55.124Z,16.2
2022-09-12T08:57:57.282Z,16.7
2022-09-12T09:07:59.001Z,17.3
2022-09-12T09:18:00.832Z,17.7
2022-09-12T09:38:05.181Z,18.8
2022-09-12T10:08:11.441Z,19.7
2022-09-12T10:18:13.374Z,20.1
2022-09-12T10:28:15.692Z,20.2
2022-09-12T10:38:17.826Z,20.6
2022-09-12T10:58:22.405Z,21.9
2022-09-12T11:08:24.853Z,21.9
2022-09-12T11:18:26.919Z,21.9
2022-09-12T11:28:28.660Z,21.8
2022-09-12T11:48:33.071Z,22.7
2022-09-12T11:58:35.582Z,22.3
2022-09-12T12:08:37.755Z,22.1
2022-09-12T12:11:16.110Z,22.1
2022-09-12T12:28:51.596Z,22.8
2022-09-12T12:38:53.716Z,22.9
2022-09-12T12:48:55.960Z,23.1
2022-09-12T12:58:58.261Z,23.2
2022-09-12T13:09:00.292Z,23.5
2022-09-12T13:19:02.691Z,23.3
2022-09-12T13:29:04.505Z,23.7
2022-09-12T13:39:06.331Z,23.5
2022-09-12T13:49:08.472Z,23.5
2022-09-12T13:59:10.569Z,23.7
2022-09-12T14:09:12.724Z,23.9
2022-09-12T14:19:15.375Z,23.9
2022-09-12T14:39:19.615Z,24.5
2022-09-12T14:49:21.397Z,24.8
2022-09-12T14:59:23.262Z,25.4
2022-09-12T15:09:25.559Z,25.6
2022-09-12T15:19:28.148Z,25
2022-09-12T15:29:30.040Z,25.3
2022-09-12T15:39:32.564Z,24.7
2022-09-12T15:49:34.710Z,24.6
2022-09-12T15:59:36.888Z,24.4
2022-09-12T16:09:39.105Z,25.1
2022-09-12T16:19:40.798Z,24.5
2022-09-12T16:29:43.210Z,24.1
2022-09-12T16:39:44.933Z,23.6
2022-09-12T16:49:47.373Z,23.3
2022-09-12T16:59:49.883Z,23.1
2022-09-12T17:09:52.035Z,22.9
2022-09-12T17:19:54.287Z,22.6
2022-09-12T17:29:56.949Z,22.3
2022-09-12T17:50:27.618Z,21.5
2022-09-12T18:00:35.189Z,21.1
2022-09-12T18:10:06.128Z,20.6
2022-09-12T18:20:08.259Z,20.3
2022-09-12T18:30:20.904Z,19.9
2022-09-12T18:40:12.853Z,19.7
2022-09-12T18:50:15.506Z,19.5
2022-09-12T19:00:17.852Z,19.2
2022-09-12T19:10:20.083Z,18.9
2022-09-12T19:20:21.796Z,18.6
2022-09-12T19:30:23.957Z,18.6
2022-09-12T19:40:25.652Z,18.6
2022-09-12T19:50:28.341Z,18.5
2022-09-12T20:00:30.142Z,18.5
2022-09-12T20:10:32.288Z,18.3
2022-09-12T20:20:34.468Z,18.1
2022-09-12T20:30:37.028Z,17.9
2022-09-12T20:40:39.057Z,17.8
2022-09-12T20:50:41.637Z,17.4
2022-09-12T21:00:43.446Z,17.1
2022-09-12T21:10:45.248Z,17.1
2022-09-12T21:20:47.845Z,17.1
2022-09-12T21:30:50.179Z,17.2
2022-09-12T21:40:52.334Z,17.2
2022-09-12T21:50:54.141Z,17.2
2022-09-12T22:10:58.260Z,17
2022-09-12T22:21:00.505Z,16.9
2022-09-12T22:31:02.862Z,17
2022-09-12T22:41:04.615Z,17.1
2022-09-12T22:51:06.497Z,17.2
2022-09-12T23:01:09.002Z,17.1
2022-09-12T23:11:10.801Z,17.1
2022-09-12T23:21:13.210Z,16.9
2022-09-12T23:31:15.486Z,16.8
2022-09-12T23:41:17.323Z,16.9
2022-09-12T23:51:19.872Z,16.9
